sensor_id;sensor_type;location;lat;lon;timestamp;temperature;humidity
52621;DHT22;38515;53.160;6.990;2023-04-25T00:01:45;6.30;99.90
52621;DHT22;38515;53.160;6.990;2023-04-25T00:04:10;6.30;99.90
52621;DHT22;38515;53.160;6.990;2023-04-25T00:06:37;6.30;99.90
52621;DHT22;38515;53.160;6.990;2023-04-25T00:09:04;6.30;99.90
52621;DHT22;38515;53.160;6.990;2023-04-25T00:11:33;6.30;99.90
52621;DHT22;38515;53.160;6.990;2023-04-25T00:13:59;6.20;99.90
52621;DHT22;38515;53.160;6.990;2023-04-25T00:16:27;6.30;99.90
52621;DHT22;38515;53.160;6.990;2023-04-25T00:18:54;6.20;99.90
52621;DHT22;38515;53.160;6.990;2023-04-25T00:21:21;6.20;99.90
52621;DHT22;38515;53.160;6.990;2023-04-25T00:23:47;6.20;99.90
52621;DHT22;38515;53.160;6.990;2023-04-25T00:26:13;6.20;99.90
52621;DHT22;38515;53.160;6.990;2023-04-25T00:28:40;6.20;99.90
52621;DHT22;38515;53.160;6.990;2023-04-25T00:31:06;6.20;99.90
52621;DHT22;38515;53.160;6.990;2023-04-25T00:33:32;6.20;99.90
52621;DHT22;38515;53.160;6.990;2023-04-25T00:35:57;6.30;99.90
52621;DHT22;38515;53.160;6.990;2023-04-25T00:38:24;6.20;99.90
52621;DHT22;38515;53.160;6.990;2023-04-25T00:40:49;6.10;99.90
52621;DHT22;38515;53.160;6.990;2023-04-25T00:43:15;5.90;99.90
52621;DHT22;38515;53.160;6.990;2023-04-25T00:45:43;5.90;99.90
52621;DHT22;38515;53.160;6.990;2023-04-25T00:48:08;6.00;99.90
52621;DHT22;38515;53.160;6.990;2023-04-25T00:50:35;6.00;99.90
52621;DHT22;38515;53.160;6.990;2023-04-25T00:53:01;5.90;99.90
52621;DHT22;38515;53.160;6.990;2023-04-25T00:55:32;5.90;99.90
52621;DHT22;38515;53.160;6.990;2023-04-25T00:58:00;5.90;99.90
52621;DHT22;38515;53.160;6.990;2023-04-25T01:00:26;5.80;99.90
52621;DHT22;38515;53.160;6.990;2023-04-25T01:02:52;5.80;99.90
52621;DHT22;38515;53.160;6.990;2023-04-25T01:05:18;5.80;99.90
52621;DHT22;38515;53.160;6.990;2023-04-25T01:07:44;5.80;99.90
52621;DHT22;38515;53.160;6.990;2023-04-25T01:10:11;5.80;99.90
52621;DHT22;38515;53.160;6.990;2023-04-25T01:12:37;5.70;99.90
52621;DHT22;38515;53.160;6.990;2023-04-25T01:15:03;5.80;99.90
52621;DHT22;38515;53.160;6.990;2023-04-25T01:17:29;5.80;99.90
52621;DHT22;38515;53.160;6.990;2023-04-25T01:19:55;5.80;99.90
52621;DHT22;38515;53.160;6.990;2023-04-25T01:22:21;5.80;99.90
52621;DHT22;38515;53.160;6.990;2023-04-25T01:24:47;5.80;99.90
52621;DHT22;38515;53.160;6.990;2023-04-25T01:27:13;5.80;99.90
52621;DHT22;38515;53.160;6.990;2023-04-25T01:29:39;5.80;99.90
52621;DHT22;38515;53.160;6.990;2023-04-25T01:32:06;5.70;99.90
52621;DHT22;38515;53.160;6.990;2023-04-25T01:34:32;5.80;99.90
52621;DHT22;38515;53.160;6.990;2023-04-25T01:37:17;5.80;99.90
52621;DHT22;38515;53.160;6.990;2023-04-25T01:39:43;5.70;99.90
52621;DHT22;38515;53.160;6.990;2023-04-25T01:42:09;5.70;99.90
52621;DHT22;38515;53.160;6.990;2023-04-25T01:44:35;5.60;99.90
52621;DHT22;38515;53.160;6.990;2023-04-25T01:47:01;5.60;99.90
52621;DHT22;38515;53.160;6.990;2023-04-25T01:49:27;5.60;99.90
52621;DHT22;38515;53.160;6.990;2023-04-25T01:51:53;5.60;99.90
52621;DHT22;38515;53.160;6.990;2023-04-25T01:54:19;5.60;99.90
52621;DHT22;38515;53.160;6.990;2023-04-25T01:56:50;5.60;99.90
52621;DHT22;38515;53.160;6.990;2023-04-25T01:59:18;5.70;99.90
52621;DHT22;38515;53.160;6.990;2023-04-25T02:01:43;7.30;99.90
52621;DHT22;38515;53.160;6.990;2023-04-25T02:04:09;5.60;99.90
52621;DHT22;38515;53.160;6.990;2023-04-25T02:06:35;5.60;99.90
52621;DHT22;38515;53.160;6.990;2023-04-25T02:09:01;5.50;99.90
52621;DHT22;38515;53.160;6.990;2023-04-25T02:11:27;5.60;99.90
52621;DHT22;38515;53.160;6.990;2023-04-25T02:13:52;5.50;99.90
52621;DHT22;38515;53.160;6.990;2023-04-25T02:16:18;5.40;99.90
52621;DHT22;38515;53.160;6.990;2023-04-25T02:18:44;5.40;99.90
52621;DHT22;38515;53.160;6.990;2023-04-25T02:21:10;5.40;99.90
52621;DHT22;38515;53.160;6.990;2023-04-25T02:23:37;5.50;99.90
52621;DHT22;38515;53.160;6.990;2023-04-25T02:26:03;5.40;99.90
52621;DHT22;38515;53.160;6.990;2023-04-25T02:28:29;5.40;99.90
52621;DHT22;38515;53.160;6.990;2023-04-25T02:30:55;5.30;99.90
52621;DHT22;38515;53.160;6.990;2023-04-25T02:33:21;5.30;99.90
52621;DHT22;38515;53.160;6.990;2023-04-25T02:35:47;5.20;99.90
52621;DHT22;38515;53.160;6.990;2023-04-25T02:38:13;5.20;99.90
52621;DHT22;38515;53.160;6.990;2023-04-25T02:40:39;5.30;99.90
52621;DHT22;38515;53.160;6.990;2023-04-25T02:43:04;5.40;99.90
52621;DHT22;38515;53.160;6.990;2023-04-25T02:45:30;6.10;99.90
52621;DHT22;38515;53.160;6.990;2023-04-25T02:47:56;5.20;99.90
52621;DHT22;38515;53.160;6.990;2023-04-25T02:50:22;5.20;99.90
52621;DHT22;38515;53.160;6.990;2023-04-25T02:52:48;5.20;99.90
52621;DHT22;38515;53.160;6.990;2023-04-25T02:55:14;5.10;99.90
52621;DHT22;38515;53.160;6.990;2023-04-25T02:57:40;5.10;99.90
52621;DHT22;38515;53.160;6.990;2023-04-25T03:00:06;4.80;99.90
52621;DHT22;38515;53.160;6.990;2023-04-25T03:02:32;5.00;99.90
52621;DHT22;38515;53.160;6.990;2023-04-25T03:04:58;5.00;99.90
52621;DHT22;38515;53.160;6.990;2023-04-25T03:07:24;5.00;99.90
52621;DHT22;38515;53.160;6.990;2023-04-25T03:09:50;4.80;99.90
52621;DHT22;38515;53.160;6.990;2023-04-25T03:12:16;4.80;99.90
52621;DHT22;38515;53.160;6.990;2023-04-25T03:14:41;4.60;99.90
52621;DHT22;38515;53.160;6.990;2023-04-25T03:17:07;5.90;99.90
52621;DHT22;38515;53.160;6.990;2023-04-25T03:19:35;4.40;99.90
52621;DHT22;38515;53.160;6.990;2023-04-25T03:22:01;4.70;99.90
52621;DHT22;38515;53.160;6.990;2023-04-25T03:24:27;4.50;99.90
52621;DHT22;38515;53.160;6.990;2023-04-25T03:26:54;4.50;99.90
52621;DHT22;38515;53.160;6.990;2023-04-25T03:29:20;4.50;99.90
52621;DHT22;38515;53.160;6.990;2023-04-25T03:31:50;4.50;99.90
52621;DHT22;38515;53.160;6.990;2023-04-25T03:34:15;4.40;99.90
52621;DHT22;38515;53.160;6.990;2023-04-25T03:36:41;4.40;99.90
52621;DHT22;38515;53.160;6.990;2023-04-25T03:39:07;4.50;99.90
52621;DHT22;38515;53.160;6.990;2023-04-25T03:41:33;4.50;99.90
52621;DHT22;38515;53.160;6.990;2023-04-25T03:43:58;4.60;99.90
52621;DHT22;38515;53.160;6.990;2023-04-25T03:46:24;4.50;99.90
52621;DHT22;38515;53.160;6.990;2023-04-25T03:48:50;4.50;99.90
52621;DHT22;38515;53.160;6.990;2023-04-25T03:51:16;4.40;99.90
52621;DHT22;38515;53.160;6.990;2023-04-25T03:53:42;4.30;99.90
52621;DHT22;38515;53.160;6.990;2023-04-25T03:56:07;4.30;99.90
52621;DHT22;38515;53.160;6.990;2023-04-25T03:58:33;3.60;99.90
52621;DHT22;38515;53.160;6.990;2023-04-25T04:00:59;4.00;99.90
52621;DHT22;38515;53.160;6.990;2023-04-25T04:03:25;3.80;99.90
52621;DHT22;38515;53.160;6.990;2023-04-25T04:05:50;3.70;99.90
52621;DHT22;38515;53.160;6.990;2023-04-25T04:08:16;2.80;99.90
52621;DHT22;38515;53.160;6.990;2023-04-25T04:10:42;3.30;99.90
52621;DHT22;38515;53.160;6.990;2023-04-25T04:13:08;3.70;99.90
52621;DHT22;38515;53.160;6.990;2023-04-25T04:15:33;2.00;99.90
52621;DHT22;38515;53.160;6.990;2023-04-25T04:17:59;3.20;99.90
52621;DHT22;38515;53.160;6.990;2023-04-25T04:20:29;3.10;99.90
52621;DHT22;38515;53.160;6.990;2023-04-25T04:22:55;3.50;99.90
52621;DHT22;38515;53.160;6.990;2023-04-25T04:25:21;3.30;99.90
52621;DHT22;38515;53.160;6.990;2023-04-25T04:27:47;3.50;99.90
52621;DHT22;38515;53.160;6.990;2023-04-25T04:30:13;4.30;99.90
52621;DHT22;38515;53.160;6.990;2023-04-25T04:32:38;3.00;99.90
52621;DHT22;38515;53.160;6.990;2023-04-25T04:35:05;3.90;99.90
52621;DHT22;38515;53.160;6.990;2023-04-25T04:37:31;4.10;99.90
52621;DHT22;38515;53.160;6.990;2023-04-25T04:39:58;4.20;99.90
52621;DHT22;38515;53.160;6.990;2023-04-25T04:42:24;3.30;99.90
52621;DHT22;38515;53.160;6.990;2023-04-25T04:44:50;4.20;99.90
52621;DHT22;38515;53.160;6.990;2023-04-25T04:47:17;4.30;99.90
52621;DHT22;38515;53.160;6.990;2023-04-25T04:49:45;4.30;99.90
52621;DHT22;38515;53.160;6.990;2023-04-25T04:52:11;4.40;99.90
52621;DHT22;38515;53.160;6.990;2023-04-25T04:54:37;4.80;99.90
52621;DHT22;38515;53.160;6.990;2023-04-25T04:57:06;4.50;99.90
52621;DHT22;38515;53.160;6.990;2023-04-25T04:59:31;4.40;99.90
52621;DHT22;38515;53.160;6.990;2023-04-25T05:01:57;4.50;99.90
52621;DHT22;38515;53.160;6.990;2023-04-25T05:04:23;4.50;99.90
52621;DHT22;38515;53.160;6.990;2023-04-25T05:06:49;4.50;99.90
52621;DHT22;38515;53.160;6.990;2023-04-25T05:09:15;4.50;99.90
52621;DHT22;38515;53.160;6.990;2023-04-25T05:11:41;4.40;99.90
52621;DHT22;38515;53.160;6.990;2023-04-25T05:14:07;4.40;99.90
52621;DHT22;38515;53.160;6.990;2023-04-25T05:16:32;4.30;99.90
52621;DHT22;38515;53.160;6.990;2023-04-25T05:18:58;4.30;99.90
52621;DHT22;38515;53.160;6.990;2023-04-25T05:21:24;4.30;99.90
52621;DHT22;38515;53.160;6.990;2023-04-25T05:23:50;4.30;99.90
52621;DHT22;38515;53.160;6.990;2023-04-25T05:26:16;4.30;99.90
52621;DHT22;38515;53.160;6.990;2023-04-25T05:28:42;4.20;99.90
52621;DHT22;38515;53.160;6.990;2023-04-25T05:31:09;4.20;99.90
52621;DHT22;38515;53.160;6.990;2023-04-25T05:33:35;4.20;99.90
52621;DHT22;38515;53.160;6.990;2023-04-25T05:36:01;4.40;99.90
52621;DHT22;38515;53.160;6.990;2023-04-25T05:38:27;4.40;99.90
52621;DHT22;38515;53.160;6.990;2023-04-25T05:40:53;4.30;99.90
52621;DHT22;38515;53.160;6.990;2023-04-25T05:43:19;3.70;99.90
52621;DHT22;38515;53.160;6.990;2023-04-25T05:45:45;4.10;99.90
52621;DHT22;38515;53.160;6.990;2023-04-25T05:48:11;3.80;99.90
52621;DHT22;38515;53.160;6.990;2023-04-25T05:50:38;3.20;99.90
52621;DHT22;38515;53.160;6.990;2023-04-25T05:53:06;3.90;99.90
52621;DHT22;38515;53.160;6.990;2023-04-25T05:55:32;3.80;99.90
52621;DHT22;38515;53.160;6.990;2023-04-25T05:57:58;3.50;99.90
52621;DHT22;38515;53.160;6.990;2023-04-25T06:00:24;3.80;99.90
52621;DHT22;38515;53.160;6.990;2023-04-25T06:02:50;3.90;99.90
52621;DHT22;38515;53.160;6.990;2023-04-25T06:05:16;3.90;99.90
52621;DHT22;38515;53.160;6.990;2023-04-25T06:07:42;4.10;99.90
52621;DHT22;38515;53.160;6.990;2023-04-25T06:10:08;4.40;99.90
52621;DHT22;38515;53.160;6.990;2023-04-25T06:12:34;4.60;99.90
52621;DHT22;38515;53.160;6.990;2023-04-25T06:15:00;4.60;99.90
52621;DHT22;38515;53.160;6.990;2023-04-25T06:17:26;4.70;99.90
52621;DHT22;38515;53.160;6.990;2023-04-25T06:19:51;4.90;99.90
52621;DHT22;38515;53.160;6.990;2023-04-25T06:22:18;5.30;99.90
52621;DHT22;38515;53.160;6.990;2023-04-25T06:24:43;5.90;99.90
52621;DHT22;38515;53.160;6.990;2023-04-25T06:27:09;6.30;99.90
52621;DHT22;38515;53.160;6.990;2023-04-25T06:29:35;6.20;99.90
52621;DHT22;38515;53.160;6.990;2023-04-25T06:32:01;6.00;99.90
52621;DHT22;38515;53.160;6.990;2023-04-25T06:34:26;5.90;99.90
52621;DHT22;38515;53.160;6.990;2023-04-25T06:36:52;5.80;99.90
52621;DHT22;38515;53.160;6.990;2023-04-25T06:39:18;5.70;99.90
52621;DHT22;38515;53.160;6.990;2023-04-25T06:41:45;5.70;99.90
52621;DHT22;38515;53.160;6.990;2023-04-25T06:44:11;5.60;99.90
52621;DHT22;38515;53.160;6.990;2023-04-25T06:46:37;5.50;99.90
52621;DHT22;38515;53.160;6.990;2023-04-25T06:49:03;5.80;99.90
52621;DHT22;38515;53.160;6.990;2023-04-25T06:51:28;5.80;99.90
52621;DHT22;38515;53.160;6.990;2023-04-25T06:53:56;6.60;99.90
52621;DHT22;38515;53.160;6.990;2023-04-25T06:56:21;7.40;99.90
52621;DHT22;38515;53.160;6.990;2023-04-25T06:58:49;8.30;99.90
52621;DHT22;38515;53.160;6.990;2023-04-25T07:01:15;8.80;99.90
52621;DHT22;38515;53.160;6.990;2023-04-25T07:03:41;9.10;99.90
52621;DHT22;38515;53.160;6.990;2023-04-25T07:06:07;9.60;99.90
52621;DHT22;38515;53.160;6.990;2023-04-25T07:08:32;10.00;99.90
52621;DHT22;38515;53.160;6.990;2023-04-25T07:10:58;10.30;99.90
52621;DHT22;38515;53.160;6.990;2023-04-25T07:13:24;10.60;99.90
52621;DHT22;38515;53.160;6.990;2023-04-25T07:15:50;11.00;99.90
52621;DHT22;38515;53.160;6.990;2023-04-25T07:18:16;10.70;99.90
52621;DHT22;38515;53.160;6.990;2023-04-25T07:20:42;10.00;99.90
52621;DHT22;38515;53.160;6.990;2023-04-25T07:23:11;8.70;99.90
52621;DHT22;38515;53.160;6.990;2023-04-25T07:25:36;7.90;99.90
52621;DHT22;38515;53.160;6.990;2023-04-25T07:28:02;7.30;99.90
52621;DHT22;38515;53.160;6.990;2023-04-25T07:30:28;7.00;99.90
52621;DHT22;38515;53.160;6.990;2023-04-25T07:32:54;5.40;99.90
52621;DHT22;38515;53.160;6.990;2023-04-25T07:35:20;6.90;99.90
52621;DHT22;38515;53.160;6.990;2023-04-25T07:37:46;6.90;99.90
52621;DHT22;38515;53.160;6.990;2023-04-25T07:40:12;7.10;99.90
52621;DHT22;38515;53.160;6.990;2023-04-25T07:42:38;7.10;99.90
52621;DHT22;38515;53.160;6.990;2023-04-25T07:45:04;7.20;99.90
52621;DHT22;38515;53.160;6.990;2023-04-25T07:47:30;7.30;99.90
52621;DHT22;38515;53.160;6.990;2023-04-25T07:49:56;7.40;99.90
52621;DHT22;38515;53.160;6.990;2023-04-25T07:52:23;7.40;99.90
52621;DHT22;38515;53.160;6.990;2023-04-25T07:54:49;7.30;99.90
52621;DHT22;38515;53.160;6.990;2023-04-25T07:57:15;7.40;99.90
52621;DHT22;38515;53.160;6.990;2023-04-25T07:59:42;7.70;99.90
52621;DHT22;38515;53.160;6.990;2023-04-25T08:02:08;8.10;99.90
52621;DHT22;38515;53.160;6.990;2023-04-25T08:04:34;8.20;99.90
52621;DHT22;38515;53.160;6.990;2023-04-25T08:07:00;8.40;99.90
52621;DHT22;38515;53.160;6.990;2023-04-25T08:09:26;8.60;99.90
52621;DHT22;38515;53.160;6.990;2023-04-25T08:11:52;8.70;99.90
52621;DHT22;38515;53.160;6.990;2023-04-25T08:14:19;8.60;99.90
52621;DHT22;38515;53.160;6.990;2023-04-25T08:16:45;8.50;99.90
52621;DHT22;38515;53.160;6.990;2023-04-25T08:19:11;8.40;99.90
52621;DHT22;38515;53.160;6.990;2023-04-25T08:21:37;8.40;99.90
52621;DHT22;38515;53.160;6.990;2023-04-25T08:24:03;8.30;99.90
52621;DHT22;38515;53.160;6.990;2023-04-25T08:26:29;8.00;99.90
52621;DHT22;38515;53.160;6.990;2023-04-25T08:28:55;7.70;99.90
52621;DHT22;38515;53.160;6.990;2023-04-25T08:31:21;7.40;99.90
52621;DHT22;38515;53.160;6.990;2023-04-25T08:33:47;7.10;99.90
52621;DHT22;38515;53.160;6.990;2023-04-25T08:36:13;7.10;99.90
52621;DHT22;38515;53.160;6.990;2023-04-25T08:38:38;7.30;99.90
52621;DHT22;38515;53.160;6.990;2023-04-25T08:41:05;7.60;99.90
52621;DHT22;38515;53.160;6.990;2023-04-25T08:43:32;7.60;99.90
52621;DHT22;38515;53.160;6.990;2023-04-25T08:46:01;7.30;99.90
52621;DHT22;38515;53.160;6.990;2023-04-25T08:48:28;7.00;99.90
52621;DHT22;38515;53.160;6.990;2023-04-25T08:50:57;6.60;99.90
52621;DHT22;38515;53.160;6.990;2023-04-25T08:53:30;6.40;99.90
52621;DHT22;38515;53.160;6.990;2023-04-25T08:55:59;6.30;99.90
52621;DHT22;38515;53.160;6.990;2023-04-25T08:58:25;6.30;99.90
52621;DHT22;38515;53.160;6.990;2023-04-25T09:00:51;6.30;99.90
52621;DHT22;38515;53.160;6.990;2023-04-25T09:03:18;6.40;99.90
52621;DHT22;38515;53.160;6.990;2023-04-25T09:05:44;6.60;99.90
52621;DHT22;38515;53.160;6.990;2023-04-25T09:08:10;6.70;99.90
52621;DHT22;38515;53.160;6.990;2023-04-25T09:10:36;6.90;99.90
52621;DHT22;38515;53.160;6.990;2023-04-25T09:15:48;7.10;99.90
52621;DHT22;38515;53.160;6.990;2023-04-25T09:18:31;7.30;99.90
52621;DHT22;38515;53.160;6.990;2023-04-25T09:21:11;7.50;99.90
52621;DHT22;38515;53.160;6.990;2023-04-25T09:23:55;7.60;99.90
52621;DHT22;38515;53.160;6.990;2023-04-25T09:26:21;7.90;99.90
52621;DHT22;38515;53.160;6.990;2023-04-25T09:28:47;8.00;99.90
52621;DHT22;38515;53.160;6.990;2023-04-25T09:31:24;8.20;99.90
52621;DHT22;38515;53.160;6.990;2023-04-25T09:33:59;8.20;99.90
52621;DHT22;38515;53.160;6.990;2023-04-25T09:36:26;8.30;99.90
52621;DHT22;38515;53.160;6.990;2023-04-25T09:38:52;8.20;99.90
52621;DHT22;38515;53.160;6.990;2023-04-25T09:41:23;8.40;99.90
52621;DHT22;38515;53.160;6.990;2023-04-25T09:43:50;8.60;99.90
52621;DHT22;38515;53.160;6.990;2023-04-25T09:46:16;8.90;99.90
52621;DHT22;38515;53.160;6.990;2023-04-25T09:48:50;9.20;99.90
52621;DHT22;38515;53.160;6.990;2023-04-25T09:51:16;9.30;99.90
52621;DHT22;38515;53.160;6.990;2023-04-25T09:53:46;9.10;99.90
52621;DHT22;38515;53.160;6.990;2023-04-25T09:56:16;8.90;99.90
52621;DHT22;38515;53.160;6.990;2023-04-25T09:58:42;9.10;99.90
52621;DHT22;38515;53.160;6.990;2023-04-25T10:01:09;9.30;99.90
52621;DHT22;38515;53.160;6.990;2023-04-25T10:03:37;9.30;99.90
52621;DHT22;38515;53.160;6.990;2023-04-25T10:06:09;9.00;99.90
52621;DHT22;38515;53.160;6.990;2023-04-25T10:08:37;8.70;99.90
52621;DHT22;38515;53.160;6.990;2023-04-25T10:11:10;8.40;99.90
52621;DHT22;38515;53.160;6.990;2023-04-25T10:13:36;8.20;99.90
52621;DHT22;38515;53.160;6.990;2023-04-25T10:16:04;8.10;99.90
52621;DHT22;38515;53.160;6.990;2023-04-25T10:18:31;8.20;99.90
52621;DHT22;38515;53.160;6.990;2023-04-25T10:21:02;8.40;99.90
52621;DHT22;38515;53.160;6.990;2023-04-25T10:23:30;8.50;99.90
52621;DHT22;38515;53.160;6.990;2023-04-25T10:25:57;8.70;99.90
52621;DHT22;38515;53.160;6.990;2023-04-25T10:28:24;8.80;99.90
52621;DHT22;38515;53.160;6.990;2023-04-25T10:31:01;8.90;99.90
52621;DHT22;38515;53.160;6.990;2023-04-25T10:33:47;9.10;99.90
52621;DHT22;38515;53.160;6.990;2023-04-25T10:36:32;9.40;99.90
52621;DHT22;38515;53.160;6.990;2023-04-25T10:39:06;9.60;99.90
52621;DHT22;38515;53.160;6.990;2023-04-25T10:41:57;9.60;99.90
52621;DHT22;38515;53.160;6.990;2023-04-25T10:44:30;10.00;99.90
52621;DHT22;38515;53.160;6.990;2023-04-25T10:46:59;8.50;99.90
52621;DHT22;38515;53.160;6.990;2023-04-25T10:49:36;7.90;99.90
52621;DHT22;38515;53.160;6.990;2023-04-25T10:54:54;6.90;99.90
52621;DHT22;38515;53.160;6.990;2023-04-25T10:57:39;6.60;99.90
52621;DHT22;38515;53.160;6.990;2023-04-25T11:00:08;6.50;99.90
52621;DHT22;38515;53.160;6.990;2023-04-25T11:02:58;6.50;99.90
52621;DHT22;38515;53.160;6.990;2023-04-25T11:05:36;6.60;99.90
52621;DHT22;38515;53.160;6.990;2023-04-25T11:08:02;6.70;99.90
52621;DHT22;38515;53.160;6.990;2023-04-25T11:10:32;6.90;99.90
52621;DHT22;38515;53.160;6.990;2023-04-25T11:13:01;7.30;99.90
52621;DHT22;38515;53.160;6.990;2023-04-25T11:15:27;7.70;99.90
52621;DHT22;38515;53.160;6.990;2023-04-25T11:17:53;8.20;99.90
52621;DHT22;38515;53.160;6.990;2023-04-25T11:20:19;8.60;99.90
52621;DHT22;38515;53.160;6.990;2023-04-25T11:22:46;9.00;99.90
52621;DHT22;38515;53.160;6.990;2023-04-25T11:25:14;8.90;99.90
52621;DHT22;38515;53.160;6.990;2023-04-25T11:27:54;8.20;99.90
52621;DHT22;38515;53.160;6.990;2023-04-25T11:30:21;7.50;99.90
52621;DHT22;38515;53.160;6.990;2023-04-25T11:32:47;7.10;99.90
52621;DHT22;38515;53.160;6.990;2023-04-25T11:35:14;7.00;99.90
52621;DHT22;38515;53.160;6.990;2023-04-25T11:37:41;7.30;99.90
52621;DHT22;38515;53.160;6.990;2023-04-25T11:40:08;7.80;99.90
52621;DHT22;38515;53.160;6.990;2023-04-25T11:42:39;8.10;99.90
52621;DHT22;38515;53.160;6.990;2023-04-25T11:45:05;8.40;99.90
52621;DHT22;38515;53.160;6.990;2023-04-25T11:47:32;8.60;99.90
52621;DHT22;38515;53.160;6.990;2023-04-25T11:50:06;8.70;99.90
52621;DHT22;38515;53.160;6.990;2023-04-25T11:52:47;8.90;99.90
52621;DHT22;38515;53.160;6.990;2023-04-25T11:55:19;8.90;99.90
52621;DHT22;38515;53.160;6.990;2023-04-25T11:57:47;9.00;99.90
52621;DHT22;38515;53.160;6.990;2023-04-25T12:00:17;8.90;99.90
52621;DHT22;38515;53.160;6.990;2023-04-25T12:02:51;9.00;99.90
52621;DHT22;38515;53.160;6.990;2023-04-25T12:05:18;9.20;99.90
52621;DHT22;38515;53.160;6.990;2023-04-25T12:07:45;9.50;99.90
52621;DHT22;38515;53.160;6.990;2023-04-25T12:10:14;9.50;99.90
52621;DHT22;38515;53.160;6.990;2023-04-25T12:12:44;9.60;99.90
52621;DHT22;38515;53.160;6.990;2023-04-25T12:15:18;9.40;99.90
52621;DHT22;38515;53.160;6.990;2023-04-25T12:17:49;9.20;99.90
52621;DHT22;38515;53.160;6.990;2023-04-25T12:20:21;9.00;99.90
52621;DHT22;38515;53.160;6.990;2023-04-25T12:22:49;9.00;99.90
52621;DHT22;38515;53.160;6.990;2023-04-25T12:25:54;9.10;99.90
52621;DHT22;38515;53.160;6.990;2023-04-25T12:28:21;9.10;99.90
52621;DHT22;38515;53.160;6.990;2023-04-25T12:33:19;8.90;99.90
52621;DHT22;38515;53.160;6.990;2023-04-25T12:35:44;8.90;99.90
52621;DHT22;38515;53.160;6.990;2023-04-25T12:38:11;8.90;99.90
52621;DHT22;38515;53.160;6.990;2023-04-25T12:40:36;8.90;99.90
52621;DHT22;38515;53.160;6.990;2023-04-25T12:43:03;8.70;99.90
52621;DHT22;38515;53.160;6.990;2023-04-25T12:45:28;8.50;99.90
52621;DHT22;38515;53.160;6.990;2023-04-25T12:47:54;7.90;99.90
52621;DHT22;38515;53.160;6.990;2023-04-25T12:50:20;5.70;99.90
52621;DHT22;38515;53.160;6.990;2023-04-25T12:52:46;6.40;99.90
52621;DHT22;38515;53.160;6.990;2023-04-25T12:55:12;6.10;99.90
52621;DHT22;38515;53.160;6.990;2023-04-25T12:57:37;6.10;99.90
52621;DHT22;38515;53.160;6.990;2023-04-25T13:00:04;6.40;99.90
52621;DHT22;38515;53.160;6.990;2023-04-25T13:02:32;6.80;99.90
52621;DHT22;38515;53.160;6.990;2023-04-25T13:04:58;7.20;99.90
52621;DHT22;38515;53.160;6.990;2023-04-25T13:07:43;7.50;99.90
52621;DHT22;38515;53.160;6.990;2023-04-25T13:10:08;7.70;99.90
52621;DHT22;38515;53.160;6.990;2023-04-25T13:12:34;8.00;99.90
52621;DHT22;38515;53.160;6.990;2023-04-25T13:18:41;8.60;99.90
52621;DHT22;38515;53.160;6.990;2023-04-25T13:24:10;8.80;99.90
52621;DHT22;38515;53.160;6.990;2023-04-25T13:33:39;9.20;99.90
52621;DHT22;38515;53.160;6.990;2023-04-25T13:36:05;9.20;99.90
52621;DHT22;38515;53.160;6.990;2023-04-25T13:38:49;9.10;99.90
52621;DHT22;38515;53.160;6.990;2023-04-25T13:41:34;8.70;99.90
52621;DHT22;38515;53.160;6.990;2023-04-25T19:37:53;4.10;99.90
52621;DHT22;38515;53.160;6.990;2023-04-25T19:40:19;3.90;99.90
52621;DHT22;38515;53.160;6.990;2023-04-25T19:42:47;3.80;99.90
52621;DHT22;38515;53.160;6.990;2023-04-25T19:45:13;3.60;99.90
52621;DHT22;38515;53.160;6.990;2023-04-25T19:47:39;3.60;99.90
52621;DHT22;38515;53.160;6.990;2023-04-25T19:50:06;3.50;99.90
52621;DHT22;38515;53.160;6.990;2023-04-25T19:52:34;4.50;99.90
52621;DHT22;38515;53.160;6.990;2023-04-25T19:55:00;3.40;99.90
52621;DHT22;38515;53.160;6.990;2023-04-25T19:57:35;3.40;99.90
52621;DHT22;38515;53.160;6.990;2023-04-25T20:00:10;3.60;99.90
52621;DHT22;38515;53.160;6.990;2023-04-25T20:02:36;3.80;99.90
52621;DHT22;38515;53.160;6.990;2023-04-25T20:05:04;4.20;99.90
52621;DHT22;38515;53.160;6.990;2023-04-25T20:07:30;4.00;99.90
52621;DHT22;38515;53.160;6.990;2023-04-25T20:09:56;4.00;99.90
52621;DHT22;38515;53.160;6.990;2023-04-25T20:12:22;4.00;99.90
52621;DHT22;38515;53.160;6.990;2023-04-25T20:14:48;3.70;99.90
52621;DHT22;38515;53.160;6.990;2023-04-25T20:17:17;3.90;99.90
52621;DHT22;38515;53.160;6.990;2023-04-25T20:19:43;3.80;99.90
52621;DHT22;38515;53.160;6.990;2023-04-25T20:22:08;3.70;99.90
52621;DHT22;38515;53.160;6.990;2023-04-25T20:24:35;5.10;99.90
52621;DHT22;38515;53.160;6.990;2023-04-25T20:27:01;1.40;99.90
52621;DHT22;38515;53.160;6.990;2023-04-25T20:29:27;4.70;99.90
52621;DHT22;38515;53.160;6.990;2023-04-25T20:31:56;3.40;99.90
52621;DHT22;38515;53.160;6.990;2023-04-25T20:34:22;3.30;99.90
52621;DHT22;38515;53.160;6.990;2023-04-25T20:36:50;3.20;99.90
52621;DHT22;38515;53.160;6.990;2023-04-25T20:39:18;1.80;99.90
52621;DHT22;38515;53.160;6.990;2023-04-25T20:41:44;2.70;99.90
52621;DHT22;38515;53.160;6.990;2023-04-25T20:44:10;2.80;99.90
52621;DHT22;38515;53.160;6.990;2023-04-25T20:46:37;4.30;99.90
52621;DHT22;38515;53.160;6.990;2023-04-25T20:49:04;2.70;99.90
52621;DHT22;38515;53.160;6.990;2023-04-25T20:51:33;2.40;99.90
52621;DHT22;38515;53.160;6.990;2023-04-25T20:54:00;2.60;99.90
52621;DHT22;38515;53.160;6.990;2023-04-25T20:56:28;2.30;99.90
52621;DHT22;38515;53.160;6.990;2023-04-25T20:58:55;2.60;99.90
52621;DHT22;38515;53.160;6.990;2023-04-25T21:01:22;3.60;99.90
52621;DHT22;38515;53.160;6.990;2023-04-25T21:03:49;2.50;99.90
52621;DHT22;38515;53.160;6.990;2023-04-25T21:06:16;2.40;99.90
52621;DHT22;38515;53.160;6.990;2023-04-25T21:08:42;2.40;99.90
52621;DHT22;38515;53.160;6.990;2023-04-25T21:11:08;2.30;99.90
52621;DHT22;38515;53.160;6.990;2023-04-25T21:13:34;2.30;99.90
52621;DHT22;38515;53.160;6.990;2023-04-25T21:16:01;2.30;99.90
52621;DHT22;38515;53.160;6.990;2023-04-25T21:18:27;2.40;99.90
52621;DHT22;38515;53.160;6.990;2023-04-25T21:20:54;2.30;99.90
52621;DHT22;38515;53.160;6.990;2023-04-25T21:23:20;2.10;99.90
52621;DHT22;38515;53.160;6.990;2023-04-25T21:25:46;3.00;99.90
52621;DHT22;38515;53.160;6.990;2023-04-25T21:28:13;3.70;99.90
52621;DHT22;38515;53.160;6.990;2023-04-25T21:30:39;3.10;99.90
52621;DHT22;38515;53.160;6.990;2023-04-25T21:33:07;2.80;99.90
52621;DHT22;38515;53.160;6.990;2023-04-25T21:35:32;4.30;99.90
52621;DHT22;38515;53.160;6.990;2023-04-25T21:37:58;3.90;99.90
52621;DHT22;38515;53.160;6.990;2023-04-25T21:40:25;3.00;99.90
52621;DHT22;38515;53.160;6.990;2023-04-25T21:42:51;3.60;99.90
52621;DHT22;38515;53.160;6.990;2023-04-25T21:45:18;3.30;99.90
52621;DHT22;38515;53.160;6.990;2023-04-25T21:47:47;4.50;99.90
52621;DHT22;38515;53.160;6.990;2023-04-25T21:50:13;3.40;99.90
52621;DHT22;38515;53.160;6.990;2023-04-25T21:52:40;3.50;99.90
52621;DHT22;38515;53.160;6.990;2023-04-25T21:55:06;3.40;99.90
52621;DHT22;38515;53.160;6.990;2023-04-25T21:57:32;3.80;99.90
52621;DHT22;38515;53.160;6.990;2023-04-25T21:59:58;3.80;99.90
52621;DHT22;38515;53.160;6.990;2023-04-25T22:02:24;5.00;99.90